sensor_id;sensor_type;location;lat;lon;timestamp;temperature;humidity
7016;DHT22;3548;48.402;9.990;2023-06-14T00:00:17;14.00;62.60
7016;DHT22;3548;48.402;9.990;2023-06-14T00:02:43;14.00;62.70
7016;DHT22;3548;48.402;9.990;2023-06-14T00:05:08;14.00;62.80
7016;DHT22;3548;48.402;9.990;2023-06-14T00:07:36;13.90;62.70
7016;DHT22;3548;48.402;9.990;2023-06-14T00:10:03;13.90;63.00
7016;DHT22;3548;48.402;9.990;2023-06-14T00:12:30;13.80;63.10
7016;DHT22;3548;48.402;9.990;2023-06-14T00:14:56;13.80;63.10
7016;DHT22;3548;48.402;9.990;2023-06-14T00:17:21;13.70;63.10
7016;DHT22;3548;48.402;9.990;2023-06-14T00:19:48;13.70;63.40
7016;DHT22;3548;48.402;9.990;2023-06-14T00:22:13;13.70;63.70
7016;DHT22;3548;48.402;9.990;2023-06-14T00:24:39;13.60;63.80
7016;DHT22;3548;48.402;9.990;2023-06-14T00:27:04;13.60;64.10
7016;DHT22;3548;48.402;9.990;2023-06-14T00:29:31;13.60;64.10
7016;DHT22;3548;48.402;9.990;2023-06-14T00:31:56;13.60;64.00
7016;DHT22;3548;48.402;9.990;2023-06-14T00:34:22;13.50;63.80
7016;DHT22;3548;48.402;9.990;2023-06-14T00:36:47;13.50;63.90
7016;DHT22;3548;48.402;9.990;2023-06-14T00:39:13;13.50;64.10
7016;DHT22;3548;48.402;9.990;2023-06-14T00:41:39;13.50;64.10
7016;DHT22;3548;48.402;9.990;2023-06-14T00:44:05;13.50;64.30
7016;DHT22;3548;48.402;9.990;2023-06-14T00:46:30;13.40;64.30
7016;DHT22;3548;48.402;9.990;2023-06-14T00:48:58;13.40;64.60
7016;DHT22;3548;48.402;9.990;2023-06-14T00:51:25;13.30;64.60
7016;DHT22;3548;48.402;9.990;2023-06-14T00:53:51;13.30;64.90
7016;DHT22;3548;48.402;9.990;2023-06-14T00:56:17;13.30;65.10
7016;DHT22;3548;48.402;9.990;2023-06-14T00:58:46;13.20;65.30
7016;DHT22;3548;48.402;9.990;2023-06-14T01:01:11;13.20;65.30
7016;DHT22;3548;48.402;9.990;2023-06-14T01:03:37;13.20;65.10
7016;DHT22;3548;48.402;9.990;2023-06-14T01:06:33;13.10;65.30
7016;DHT22;3548;48.402;9.990;2023-06-14T01:11:46;13.10;65.60
7016;DHT22;3548;48.402;9.990;2023-06-14T01:14:14;13.10;65.60
7016;DHT22;3548;48.402;9.990;2023-06-14T01:16:41;13.10;65.90
7016;DHT22;3548;48.402;9.990;2023-06-14T01:19:10;13.10;65.90
7016;DHT22;3548;48.402;9.990;2023-06-14T01:21:39;13.10;66.40
7016;DHT22;3548;48.402;9.990;2023-06-14T01:24:08;13.00;66.50
7016;DHT22;3548;48.402;9.990;2023-06-14T01:26:34;13.00;66.70
7016;DHT22;3548;48.402;9.990;2023-06-14T01:29:01;13.00;66.80
7016;DHT22;3548;48.402;9.990;2023-06-14T01:31:26;12.90;67.50
7016;DHT22;3548;48.402;9.990;2023-06-14T01:33:52;12.90;66.90
7016;DHT22;3548;48.402;9.990;2023-06-14T01:36:22;12.90;67.30
7016;DHT22;3548;48.402;9.990;2023-06-14T01:38:50;12.90;67.20
7016;DHT22;3548;48.402;9.990;2023-06-14T01:41:18;12.80;67.10
7016;DHT22;3548;48.402;9.990;2023-06-14T01:43:46;12.80;67.20
7016;DHT22;3548;48.402;9.990;2023-06-14T01:46:13;12.70;67.40
7016;DHT22;3548;48.402;9.990;2023-06-14T01:48:40;12.60;67.90
7016;DHT22;3548;48.402;9.990;2023-06-14T01:51:06;12.50;68.30
7016;DHT22;3548;48.402;9.990;2023-06-14T01:53:31;12.40;68.50
7016;DHT22;3548;48.402;9.990;2023-06-14T01:55:57;12.40;68.80
7016;DHT22;3548;48.402;9.990;2023-06-14T01:58:23;12.40;69.20
7016;DHT22;3548;48.402;9.990;2023-06-14T02:00:49;12.30;69.40
7016;DHT22;3548;48.402;9.990;2023-06-14T02:03:15;12.40;69.20
7016;DHT22;3548;48.402;9.990;2023-06-14T02:05:40;12.40;69.40
7016;DHT22;3548;48.402;9.990;2023-06-14T02:08:06;12.40;68.90
7016;DHT22;3548;48.402;9.990;2023-06-14T02:10:32;12.40;68.70
7016;DHT22;3548;48.402;9.990;2023-06-14T02:12:58;12.50;68.70
7016;DHT22;3548;48.402;9.990;2023-06-14T02:15:24;12.50;68.60
7016;DHT22;3548;48.402;9.990;2023-06-14T02:17:49;12.50;68.50
7016;DHT22;3548;48.402;9.990;2023-06-14T02:20:15;12.60;68.50
7016;DHT22;3548;48.402;9.990;2023-06-14T02:22:42;12.50;68.60
7016;DHT22;3548;48.402;9.990;2023-06-14T02:25:08;12.50;68.00
7016;DHT22;3548;48.402;9.990;2023-06-14T02:27:34;12.50;68.20
7016;DHT22;3548;48.402;9.990;2023-06-14T02:30:00;12.50;68.40
7016;DHT22;3548;48.402;9.990;2023-06-14T02:32:26;12.50;68.70
7016;DHT22;3548;48.402;9.990;2023-06-14T02:34:53;12.50;69.20
7016;DHT22;3548;48.402;9.990;2023-06-14T02:37:19;12.40;69.20
7016;DHT22;3548;48.402;9.990;2023-06-14T02:39:44;12.40;69.30
7016;DHT22;3548;48.402;9.990;2023-06-14T02:42:10;12.30;69.20
7016;DHT22;3548;48.402;9.990;2023-06-14T02:44:35;12.30;69.20
7016;DHT22;3548;48.402;9.990;2023-06-14T02:47:02;12.30;69.50
7016;DHT22;3548;48.402;9.990;2023-06-14T02:49:28;12.20;69.70
7016;DHT22;3548;48.402;9.990;2023-06-14T02:51:53;12.20;70.10
7016;DHT22;3548;48.402;9.990;2023-06-14T02:54:19;12.20;70.00
7016;DHT22;3548;48.402;9.990;2023-06-14T02:56:44;12.10;70.00
7016;DHT22;3548;48.402;9.990;2023-06-14T02:59:10;12.10;70.30
7016;DHT22;3548;48.402;9.990;2023-06-14T03:01:36;12.10;70.30
7016;DHT22;3548;48.402;9.990;2023-06-14T03:04:04;12.00;70.40
7016;DHT22;3548;48.402;9.990;2023-06-14T03:06:30;12.00;70.50
7016;DHT22;3548;48.402;9.990;2023-06-14T03:08:57;12.10;70.90
7016;DHT22;3548;48.402;9.990;2023-06-14T03:11:26;12.10;70.60
7016;DHT22;3548;48.402;9.990;2023-06-14T03:13:52;12.10;70.60
7016;DHT22;3548;48.402;9.990;2023-06-14T03:16:18;12.10;70.60
7016;DHT22;3548;48.402;9.990;2023-06-14T03:18:52;12.10;70.50
7016;DHT22;3548;48.402;9.990;2023-06-14T03:21:19;12.10;70.60
7016;DHT22;3548;48.402;9.990;2023-06-14T03:23:45;12.00;70.60
7016;DHT22;3548;48.402;9.990;2023-06-14T03:26:11;12.00;70.90
7016;DHT22;3548;48.402;9.990;2023-06-14T03:28:40;12.00;71.00
7016;DHT22;3548;48.402;9.990;2023-06-14T03:31:07;12.00;71.10
7016;DHT22;3548;48.402;9.990;2023-06-14T03:33:34;11.90;71.00
7016;DHT22;3548;48.402;9.990;2023-06-14T03:35:59;11.90;71.40
7016;DHT22;3548;48.402;9.990;2023-06-14T03:38:25;12.00;71.60
7016;DHT22;3548;48.402;9.990;2023-06-14T03:40:51;12.00;71.60
7016;DHT22;3548;48.402;9.990;2023-06-14T03:43:16;12.00;71.90
7016;DHT22;3548;48.402;9.990;2023-06-14T03:45:42;12.00;71.70
7016;DHT22;3548;48.402;9.990;2023-06-14T03:48:08;12.00;71.60
7016;DHT22;3548;48.402;9.990;2023-06-14T03:50:34;12.00;72.10
7016;DHT22;3548;48.402;9.990;2023-06-14T03:53:03;12.00;72.20
7016;DHT22;3548;48.402;9.990;2023-06-14T03:55:29;12.10;72.40
7016;DHT22;3548;48.402;9.990;2023-06-14T03:57:56;12.20;71.80
7016;DHT22;3548;48.402;9.990;2023-06-14T04:00:22;12.40;72.20
7016;DHT22;3548;48.402;9.990;2023-06-14T04:02:48;12.90;72.40
7016;DHT22;3548;48.402;9.990;2023-06-14T04:05:14;13.60;69.80
7016;DHT22;3548;48.402;9.990;2023-06-14T04:07:42;14.40;68.20
7016;DHT22;3548;48.402;9.990;2023-06-14T04:10:14;15.30;66.30
7016;DHT22;3548;48.402;9.990;2023-06-14T04:12:40;16.20;63.40
7016;DHT22;3548;48.402;9.990;2023-06-14T04:15:06;16.90;61.40
7016;DHT22;3548;48.402;9.990;2023-06-14T04:17:33;17.50;60.00
7016;DHT22;3548;48.402;9.990;2023-06-14T04:19:59;18.10;56.90
7016;DHT22;3548;48.402;9.990;2023-06-14T04:22:26;18.40;56.00
7016;DHT22;3548;48.402;9.990;2023-06-14T04:24:54;18.50;55.80
7016;DHT22;3548;48.402;9.990;2023-06-14T04:27:22;18.90;55.90
7016;DHT22;3548;48.402;9.990;2023-06-14T04:29:51;19.30;54.70
7016;DHT22;3548;48.402;9.990;2023-06-14T04:32:23;19.30;54.40
7016;DHT22;3548;48.402;9.990;2023-06-14T04:34:50;19.70;54.40
7016;DHT22;3548;48.402;9.990;2023-06-14T04:37:19;20.20;52.90
7016;DHT22;3548;48.402;9.990;2023-06-14T04:39:46;20.70;52.30
7016;DHT22;3548;48.402;9.990;2023-06-14T04:42:12;21.00;51.70
7016;DHT22;3548;48.402;9.990;2023-06-14T04:44:41;21.40;51.30
7016;DHT22;3548;48.402;9.990;2023-06-14T04:47:06;21.70;50.70
7016;DHT22;3548;48.402;9.990;2023-06-14T04:49:32;22.10;49.80
7016;DHT22;3548;48.402;9.990;2023-06-14T04:51:59;22.30;49.50
7016;DHT22;3548;48.402;9.990;2023-06-14T04:54:26;22.20;48.80
7016;DHT22;3548;48.402;9.990;2023-06-14T04:56:53;22.30;49.20
7016;DHT22;3548;48.402;9.990;2023-06-14T04:59:20;22.40;49.00
7016;DHT22;3548;48.402;9.990;2023-06-14T05:01:48;22.50;48.60
7016;DHT22;3548;48.402;9.990;2023-06-14T05:04:15;22.40;48.40
7016;DHT22;3548;48.402;9.990;2023-06-14T05:06:42;22.30;48.80
7016;DHT22;3548;48.402;9.990;2023-06-14T05:09:10;22.00;48.80
7016;DHT22;3548;48.402;9.990;2023-06-14T05:11:36;21.70;49.20
7016;DHT22;3548;48.402;9.990;2023-06-14T05:14:01;21.30;49.70
7016;DHT22;3548;48.402;9.990;2023-06-14T05:16:27;20.70;49.80
7016;DHT22;3548;48.402;9.990;2023-06-14T05:18:54;20.00;50.50
7016;DHT22;3548;48.402;9.990;2023-06-14T05:21:20;19.40;50.90
7016;DHT22;3548;48.402;9.990;2023-06-14T05:23:46;18.80;52.10
7016;DHT22;3548;48.402;9.990;2023-06-14T05:26:11;18.50;52.60
7016;DHT22;3548;48.402;9.990;2023-06-14T05:28:37;18.20;53.40
7016;DHT22;3548;48.402;9.990;2023-06-14T05:31:02;17.90;53.30
7016;DHT22;3548;48.402;9.990;2023-06-14T05:33:28;17.70;54.00
7016;DHT22;3548;48.402;9.990;2023-06-14T05:35:54;17.50;54.70
7016;DHT22;3548;48.402;9.990;2023-06-14T05:38:20;17.40;54.50
7016;DHT22;3548;48.402;9.990;2023-06-14T05:40:46;17.40;54.60
7016;DHT22;3548;48.402;9.990;2023-06-14T05:43:11;17.30;54.60
7016;DHT22;3548;48.402;9.990;2023-06-14T05:45:37;17.10;54.90
7016;DHT22;3548;48.402;9.990;2023-06-14T05:48:02;16.90;55.00
7016;DHT22;3548;48.402;9.990;2023-06-14T05:50:28;16.90;55.50
7016;DHT22;3548;48.402;9.990;2023-06-14T05:52:54;16.90;55.50
7016;DHT22;3548;48.402;9.990;2023-06-14T05:55:19;16.90;55.90
7016;DHT22;3548;48.402;9.990;2023-06-14T05:57:45;16.90;55.70
7016;DHT22;3548;48.402;9.990;2023-06-14T06:00:11;17.00;55.70
7016;DHT22;3548;48.402;9.990;2023-06-14T06:02:42;16.90;55.80
7016;DHT22;3548;48.402;9.990;2023-06-14T06:05:09;17.00;56.20
7016;DHT22;3548;48.402;9.990;2023-06-14T06:07:36;17.00;56.70
7016;DHT22;3548;48.402;9.990;2023-06-14T06:10:01;17.10;56.60
7016;DHT22;3548;48.402;9.990;2023-06-14T06:12:27;17.10;56.20
7016;DHT22;3548;48.402;9.990;2023-06-14T06:14:52;17.20;56.50
7016;DHT22;3548;48.402;9.990;2023-06-14T06:17:18;17.20;56.60
7016;DHT22;3548;48.402;9.990;2023-06-14T06:19:43;17.10;56.60
7016;DHT22;3548;48.402;9.990;2023-06-14T06:22:09;17.10;56.80
7016;DHT22;3548;48.402;9.990;2023-06-14T06:24:35;17.10;57.10
7016;DHT22;3548;48.402;9.990;2023-06-14T06:27:00;17.20;57.40
7016;DHT22;3548;48.402;9.990;2023-06-14T06:29:26;17.20;56.90
7016;DHT22;3548;48.402;9.990;2023-06-14T06:31:51;17.20;56.70
7016;DHT22;3548;48.402;9.990;2023-06-14T06:34:17;17.30;57.10
7016;DHT22;3548;48.402;9.990;2023-06-14T06:36:42;17.40;57.20
7016;DHT22;3548;48.402;9.990;2023-06-14T06:39:08;17.50;57.60
7016;DHT22;3548;48.402;9.990;2023-06-14T06:41:38;17.50;57.40
7016;DHT22;3548;48.402;9.990;2023-06-14T06:44:08;17.60;57.20
7016;DHT22;3548;48.402;9.990;2023-06-14T06:46:36;17.60;56.80
7016;DHT22;3548;48.402;9.990;2023-06-14T06:49:08;17.60;57.40
7016;DHT22;3548;48.402;9.990;2023-06-14T06:51:35;17.60;57.40
7016;DHT22;3548;48.402;9.990;2023-06-14T06:54:01;17.80;57.80
7016;DHT22;3548;48.402;9.990;2023-06-14T06:56:27;17.90;57.70
7016;DHT22;3548;48.402;9.990;2023-06-14T06:58:53;18.10;57.40
7016;DHT22;3548;48.402;9.990;2023-06-14T07:01:19;18.10;57.70
7016;DHT22;3548;48.402;9.990;2023-06-14T07:03:45;18.20;58.00
7016;DHT22;3548;48.402;9.990;2023-06-14T07:06:11;18.30;58.20
7016;DHT22;3548;48.402;9.990;2023-06-14T07:08:37;18.40;58.00
7016;DHT22;3548;48.402;9.990;2023-06-14T07:11:05;18.50;57.50
7016;DHT22;3548;48.402;9.990;2023-06-14T07:13:31;18.50;55.90
7016;DHT22;3548;48.402;9.990;2023-06-14T07:16:00;18.50;56.70
7016;DHT22;3548;48.402;9.990;2023-06-14T07:18:26;18.60;57.30
7016;DHT22;3548;48.402;9.990;2023-06-14T07:20:52;18.60;57.70
7016;DHT22;3548;48.402;9.990;2023-06-14T07:23:19;18.70;57.60
7016;DHT22;3548;48.402;9.990;2023-06-14T07:25:45;18.80;57.80
7016;DHT22;3548;48.402;9.990;2023-06-14T07:28:11;18.90;58.40
7016;DHT22;3548;48.402;9.990;2023-06-14T07:30:36;18.80;58.30
7016;DHT22;3548;48.402;9.990;2023-06-14T07:33:02;18.90;59.30
7016;DHT22;3548;48.402;9.990;2023-06-14T07:35:27;19.00;59.00
7016;DHT22;3548;48.402;9.990;2023-06-14T07:37:53;19.10;59.10
7016;DHT22;3548;48.402;9.990;2023-06-14T07:40:19;19.20;58.60
7016;DHT22;3548;48.402;9.990;2023-06-14T07:42:44;19.30;57.60
7016;DHT22;3548;48.402;9.990;2023-06-14T07:45:11;19.30;56.90
7016;DHT22;3548;48.402;9.990;2023-06-14T07:47:37;19.40;57.60
7016;DHT22;3548;48.402;9.990;2023-06-14T07:50:03;19.40;57.40
7016;DHT22;3548;48.402;9.990;2023-06-14T07:52:28;19.40;57.70
7016;DHT22;3548;48.402;9.990;2023-06-14T07:54:54;19.50;58.00
7016;DHT22;3548;48.402;9.990;2023-06-14T07:57:19;19.50;57.80
7016;DHT22;3548;48.402;9.990;2023-06-14T07:59:45;19.70;57.80
7016;DHT22;3548;48.402;9.990;2023-06-14T08:02:11;19.70;57.20
7016;DHT22;3548;48.402;9.990;2023-06-14T08:04:36;19.70;57.90
7016;DHT22;3548;48.402;9.990;2023-06-14T08:07:02;19.80;58.50
7016;DHT22;3548;48.402;9.990;2023-06-14T08:09:28;19.80;57.60
7016;DHT22;3548;48.402;9.990;2023-06-14T08:11:54;19.80;57.40
7016;DHT22;3548;48.402;9.990;2023-06-14T08:14:20;19.80;57.60
7016;DHT22;3548;48.402;9.990;2023-06-14T08:16:45;19.90;57.60
7016;DHT22;3548;48.402;9.990;2023-06-14T08:19:11;20.10;57.60
7016;DHT22;3548;48.402;9.990;2023-06-14T08:21:37;20.10;57.60
7016;DHT22;3548;48.402;9.990;2023-06-14T08:24:03;20.30;57.20
7016;DHT22;3548;48.402;9.990;2023-06-14T08:26:29;20.40;56.40
7016;DHT22;3548;48.402;9.990;2023-06-14T08:28:55;20.30;56.10
7016;DHT22;3548;48.402;9.990;2023-06-14T08:31:21;20.30;56.50
7016;DHT22;3548;48.402;9.990;2023-06-14T08:33:47;20.40;57.10
7016;DHT22;3548;48.402;9.990;2023-06-14T08:36:12;20.50;56.30
7016;DHT22;3548;48.402;9.990;2023-06-14T08:38:38;20.50;56.40
7016;DHT22;3548;48.402;9.990;2023-06-14T08:41:05;20.60;56.10
7016;DHT22;3548;48.402;9.990;2023-06-14T08:43:34;20.70;55.50
7016;DHT22;3548;48.402;9.990;2023-06-14T08:46:03;20.90;55.20
7016;DHT22;3548;48.402;9.990;2023-06-14T08:48:30;20.90;54.90
7016;DHT22;3548;48.402;9.990;2023-06-14T08:51:02;21.00;55.10
7016;DHT22;3548;48.402;9.990;2023-06-14T08:53:32;21.20;55.00
7016;DHT22;3548;48.402;9.990;2023-06-14T08:56:02;21.20;53.40
7016;DHT22;3548;48.402;9.990;2023-06-14T08:58:33;21.10;51.50
7016;DHT22;3548;48.402;9.990;2023-06-14T09:01:02;21.00;52.30
7016;DHT22;3548;48.402;9.990;2023-06-14T09:03:28;21.00;52.20
7016;DHT22;3548;48.402;9.990;2023-06-14T09:05:59;21.20;50.50
7016;DHT22;3548;48.402;9.990;2023-06-14T09:08:25;21.30;52.40
7016;DHT22;3548;48.402;9.990;2023-06-14T09:10:51;21.50;50.80
7016;DHT22;3548;48.402;9.990;2023-06-14T09:13:17;21.60;49.30
7016;DHT22;3548;48.402;9.990;2023-06-14T09:15:43;21.80;49.80
7016;DHT22;3548;48.402;9.990;2023-06-14T09:18:09;21.90;50.10
7016;DHT22;3548;48.402;9.990;2023-06-14T09:20:34;22.10;50.70
7016;DHT22;3548;48.402;9.990;2023-06-14T09:23:00;22.20;50.00
7016;DHT22;3548;48.402;9.990;2023-06-14T09:25:26;22.40;48.20
7016;DHT22;3548;48.402;9.990;2023-06-14T09:27:53;22.50;48.20
7016;DHT22;3548;48.402;9.990;2023-06-14T09:30:20;22.60;47.00
7016;DHT22;3548;48.402;9.990;2023-06-14T09:32:46;22.60;46.80
7016;DHT22;3548;48.402;9.990;2023-06-14T09:35:11;22.50;49.40
7016;DHT22;3548;48.402;9.990;2023-06-14T09:37:37;22.50;49.20
7016;DHT22;3548;48.402;9.990;2023-06-14T09:40:06;22.40;48.70
7016;DHT22;3548;48.402;9.990;2023-06-14T09:42:32;22.40;49.60
7016;DHT22;3548;48.402;9.990;2023-06-14T09:45:02;22.50;48.10
7016;DHT22;3548;48.402;9.990;2023-06-14T09:47:27;22.60;48.50
7016;DHT22;3548;48.402;9.990;2023-06-14T09:49:53;22.80;46.10
7016;DHT22;3548;48.402;9.990;2023-06-14T09:52:21;22.80;46.10
7016;DHT22;3548;48.402;9.990;2023-06-14T09:54:48;22.90;46.70
7016;DHT22;3548;48.402;9.990;2023-06-14T09:57:21;22.90;46.50
7016;DHT22;3548;48.402;9.990;2023-06-14T09:59:47;22.80;46.30
7016;DHT22;3548;48.402;9.990;2023-06-14T10:02:35;22.80;46.00
7016;DHT22;3548;48.402;9.990;2023-06-14T10:05:07;22.70;46.10
7016;DHT22;3548;48.402;9.990;2023-06-14T10:07:42;22.90;46.00
7016;DHT22;3548;48.402;9.990;2023-06-14T10:10:10;23.00;44.20
7016;DHT22;3548;48.402;9.990;2023-06-14T10:12:36;23.00;43.70
7016;DHT22;3548;48.402;9.990;2023-06-14T10:15:02;22.90;44.10
7016;DHT22;3548;48.402;9.990;2023-06-14T10:17:50;22.90;44.40
7016;DHT22;3548;48.402;9.990;2023-06-14T10:20:42;23.00;45.00
7016;DHT22;3548;48.402;9.990;2023-06-14T10:23:20;23.10;45.40
7016;DHT22;3548;48.402;9.990;2023-06-14T10:25:50;23.20;45.90
7016;DHT22;3548;48.402;9.990;2023-06-14T10:28:21;23.40;46.10
7016;DHT22;3548;48.402;9.990;2023-06-14T10:31:09;23.30;45.30
7016;DHT22;3548;48.402;9.990;2023-06-14T10:33:47;23.20;45.20
7016;DHT22;3548;48.402;9.990;2023-06-14T10:36:25;23.20;45.00
7016;DHT22;3548;48.402;9.990;2023-06-14T10:39:01;23.20;45.50
7016;DHT22;3548;48.402;9.990;2023-06-14T10:41:29;23.30;45.60
7016;DHT22;3548;48.402;9.990;2023-06-14T10:46:39;23.40;45.70
7016;DHT22;3548;48.402;9.990;2023-06-14T10:49:05;23.40;45.10
7016;DHT22;3548;48.402;9.990;2023-06-14T10:51:39;23.60;45.00
7016;DHT22;3548;48.402;9.990;2023-06-14T10:54:12;23.80;45.20
7016;DHT22;3548;48.402;9.990;2023-06-14T10:56:48;23.90;43.60
7016;DHT22;3548;48.402;9.990;2023-06-14T10:59:14;23.90;43.20
7016;DHT22;3548;48.402;9.990;2023-06-14T11:01:57;24.10;43.90
7016;DHT22;3548;48.402;9.990;2023-06-14T11:04:52;24.40;44.40
7016;DHT22;3548;48.402;9.990;2023-06-14T11:10:22;24.80;43.90
7016;DHT22;3548;48.402;9.990;2023-06-14T11:12:54;24.80;43.50
7016;DHT22;3548;48.402;9.990;2023-06-14T11:15:20;24.90;43.10
7016;DHT22;3548;48.402;9.990;2023-06-14T11:17:52;25.00;43.00
7016;DHT22;3548;48.402;9.990;2023-06-14T11:20:19;25.00;43.10
7016;DHT22;3548;48.402;9.990;2023-06-14T11:22:45;25.00;43.30
7016;DHT22;3548;48.402;9.990;2023-06-14T11:25:14;24.90;41.90
7016;DHT22;3548;48.402;9.990;2023-06-14T11:27:42;24.70;41.30
7016;DHT22;3548;48.402;9.990;2023-06-14T11:30:08;24.80;42.60
7016;DHT22;3548;48.402;9.990;2023-06-14T11:32:38;25.00;43.30
7016;DHT22;3548;48.402;9.990;2023-06-14T11:35:04;25.20;42.80
7016;DHT22;3548;48.402;9.990;2023-06-14T11:37:33;25.40;42.00
7016;DHT22;3548;48.402;9.990;2023-06-14T11:40:02;25.30;41.60
7016;DHT22;3548;48.402;9.990;2023-06-14T11:42:33;25.00;41.90
7016;DHT22;3548;48.402;9.990;2023-06-14T11:44:59;24.60;42.40
7016;DHT22;3548;48.402;9.990;2023-06-14T11:47:30;24.40;42.70
7016;DHT22;3548;48.402;9.990;2023-06-14T11:49:58;24.40;41.60
7016;DHT22;3548;48.402;9.990;2023-06-14T11:52:24;24.40;40.90
7016;DHT22;3548;48.402;9.990;2023-06-14T11:54:49;24.30;41.00
7016;DHT22;3548;48.402;9.990;2023-06-14T11:57:18;24.50;41.60
7016;DHT22;3548;48.402;9.990;2023-06-14T11:59:44;24.90;41.50
7016;DHT22;3548;48.402;9.990;2023-06-14T12:02:18;25.20;41.00
7016;DHT22;3548;48.402;9.990;2023-06-14T12:04:46;25.60;40.60
7016;DHT22;3548;48.402;9.990;2023-06-14T12:07:13;25.80;39.80
7016;DHT22;3548;48.402;9.990;2023-06-14T12:12:23;25.70;40.70
7016;DHT22;3548;48.402;9.990;2023-06-14T12:14:51;25.50;41.00
7016;DHT22;3548;48.402;9.990;2023-06-14T12:17:17;25.10;41.00
7016;DHT22;3548;48.402;9.990;2023-06-14T12:19:44;24.80;40.90
7016;DHT22;3548;48.402;9.990;2023-06-14T12:22:10;24.80;40.80
7016;DHT22;3548;48.402;9.990;2023-06-14T12:24:36;24.80;40.60
7016;DHT22;3548;48.402;9.990;2023-06-14T12:27:03;24.90;41.10
7016;DHT22;3548;48.402;9.990;2023-06-14T12:29:29;25.10;41.40
7016;DHT22;3548;48.402;9.990;2023-06-14T12:31:55;25.40;40.60
7016;DHT22;3548;48.402;9.990;2023-06-14T12:34:25;25.60;40.80
7016;DHT22;3548;48.402;9.990;2023-06-14T12:36:55;25.70;40.10
7016;DHT22;3548;48.402;9.990;2023-06-14T12:39:21;25.70;39.80
7016;DHT22;3548;48.402;9.990;2023-06-14T12:41:47;25.70;41.10
7016;DHT22;3548;48.402;9.990;2023-06-14T12:44:12;25.80;41.10
7016;DHT22;3548;48.402;9.990;2023-06-14T12:46:39;25.70;40.80
7016;DHT22;3548;48.402;9.990;2023-06-14T12:49:05;25.40;40.40
7016;DHT22;3548;48.402;9.990;2023-06-14T12:51:32;25.30;41.20
7016;DHT22;3548;48.402;9.990;2023-06-14T12:53:57;25.30;41.00
7016;DHT22;3548;48.402;9.990;2023-06-14T12:56:23;25.60;40.30
7016;DHT22;3548;48.402;9.990;2023-06-14T12:58:48;25.70;40.20
7016;DHT22;3548;48.402;9.990;2023-06-14T13:01:14;25.80;40.20
7016;DHT22;3548;48.402;9.990;2023-06-14T13:03:39;26.00;39.60
7016;DHT22;3548;48.402;9.990;2023-06-14T13:06:05;26.10;40.10
7016;DHT22;3548;48.402;9.990;2023-06-14T13:08:31;26.10;39.90
7016;DHT22;3548;48.402;9.990;2023-06-14T13:10:56;26.30;39.90
7016;DHT22;3548;48.402;9.990;2023-06-14T13:13:23;26.50;39.70
7016;DHT22;3548;48.402;9.990;2023-06-14T13:15:48;26.70;38.60
7016;DHT22;3548;48.402;9.990;2023-06-14T13:18:15;26.30;38.40
7016;DHT22;3548;48.402;9.990;2023-06-14T13:20:41;26.00;38.30
7016;DHT22;3548;48.402;9.990;2023-06-14T13:23:07;25.70;39.20
7016;DHT22;3548;48.402;9.990;2023-06-14T13:25:34;25.30;39.20
7016;DHT22;3548;48.402;9.990;2023-06-14T13:28:00;25.20;39.80
7016;DHT22;3548;48.402;9.990;2023-06-14T13:30:26;25.30;39.30
7016;DHT22;3548;48.402;9.990;2023-06-14T13:32:51;25.70;39.30
7016;DHT22;3548;48.402;9.990;2023-06-14T13:35:18;26.00;39.30
7016;DHT22;3548;48.402;9.990;2023-06-14T13:37:44;26.40;39.40
7016;DHT22;3548;48.402;9.990;2023-06-14T13:40:10;26.70;37.70
7016;DHT22;3548;48.402;9.990;2023-06-14T13:42:36;26.70;37.20
7016;DHT22;3548;48.402;9.990;2023-06-14T13:45:03;26.50;38.10
7016;DHT22;3548;48.402;9.990;2023-06-14T13:47:29;26.30;38.20
7016;DHT22;3548;48.402;9.990;2023-06-14T13:49:55;26.00;38.10
7016;DHT22;3548;48.402;9.990;2023-06-14T13:52:21;25.50;38.30
7016;DHT22;3548;48.402;9.990;2023-06-14T13:54:46;25.40;39.70
7016;DHT22;3548;48.402;9.990;2023-06-14T13:57:12;25.40;38.50
7016;DHT22;3548;48.402;9.990;2023-06-14T13:59:38;25.70;38.70
7016;DHT22;3548;48.402;9.990;2023-06-14T14:02:05;25.90;38.30
7016;DHT22;3548;48.402;9.990;2023-06-14T14:04:31;26.10;38.20
7016;DHT22;3548;48.402;9.990;2023-06-14T14:06:56;26.40;38.00
7016;DHT22;3548;48.402;9.990;2023-06-14T14:09:22;26.60;37.70
7016;DHT22;3548;48.402;9.990;2023-06-14T14:11:48;26.90;37.30
7016;DHT22;3548;48.402;9.990;2023-06-14T14:14:14;26.90;36.30
7016;DHT22;3548;48.402;9.990;2023-06-14T14:16:40;26.70;36.30
7016;DHT22;3548;48.402;9.990;2023-06-14T14:19:05;26.60;37.30
7016;DHT22;3548;48.402;9.990;2023-06-14T14:21:31;26.30;37.20
7016;DHT22;3548;48.402;9.990;2023-06-14T14:23:57;25.90;37.80
7016;DHT22;3548;48.402;9.990;2023-06-14T14:26:23;25.70;37.60
7016;DHT22;3548;48.402;9.990;2023-06-14T14:28:49;25.70;38.60
7016;DHT22;3548;48.402;9.990;2023-06-14T14:31:15;25.70;38.50
7016;DHT22;3548;48.402;9.990;2023-06-14T14:33:40;25.60;38.80
7016;DHT22;3548;48.402;9.990;2023-06-14T14:36:06;25.60;39.40
7016;DHT22;3548;48.402;9.990;2023-06-14T14:38:32;25.40;39.30
7016;DHT22;3548;48.402;9.990;2023-06-14T14:40:58;25.60;39.10
7016;DHT22;3548;48.402;9.990;2023-06-14T14:43:24;25.70;38.90
7016;DHT22;3548;48.402;9.990;2023-06-14T14:45:50;25.80;39.00
7016;DHT22;3548;48.402;9.990;2023-06-14T14:48:15;26.00;39.00
7016;DHT22;3548;48.402;9.990;2023-06-14T14:50:41;26.00;39.00
7016;DHT22;3548;48.402;9.990;2023-06-14T14:53:06;26.10;38.90
7016;DHT22;3548;48.402;9.990;2023-06-14T14:55:32;26.10;39.10
7016;DHT22;3548;48.402;9.990;2023-06-14T14:58:00;26.10;39.70
7016;DHT22;3548;48.402;9.990;2023-06-14T15:00:26;26.10;39.60
7016;DHT22;3548;48.402;9.990;2023-06-14T15:02:51;26.10;39.00
7016;DHT22;3548;48.402;9.990;2023-06-14T15:05:17;25.90;38.90
7016;DHT22;3548;48.402;9.990;2023-06-14T15:07:42;25.70;39.20
7016;DHT22;3548;48.402;9.990;2023-06-14T15:10:10;25.70;39.60
7016;DHT22;3548;48.402;9.990;2023-06-14T15:12:35;25.70;39.60
7016;DHT22;3548;48.402;9.990;2023-06-14T15:15:02;25.70;40.00
7016;DHT22;3548;48.402;9.990;2023-06-14T15:17:28;25.70;40.00
7016;DHT22;3548;48.402;9.990;2023-06-14T15:19:54;25.70;40.10
7016;DHT22;3548;48.402;9.990;2023-06-14T15:22:19;25.80;39.30
7016;DHT22;3548;48.402;9.990;2023-06-14T15:24:45;25.70;39.40
7016;DHT22;3548;48.402;9.990;2023-06-14T15:27:14;25.70;39.80
7016;DHT22;3548;48.402;9.990;2023-06-14T15:29:41;25.80;39.40
7016;DHT22;3548;48.402;9.990;2023-06-14T15:32:08;25.90;38.90
7016;DHT22;3548;48.402;9.990;2023-06-14T15:34:34;25.80;39.30
7016;DHT22;3548;48.402;9.990;2023-06-14T15:36:59;25.80;39.20
7016;DHT22;3548;48.402;9.990;2023-06-14T15:39:25;25.80;39.60
7016;DHT22;3548;48.402;9.990;2023-06-14T15:41:52;25.90;39.50
7016;DHT22;3548;48.402;9.990;2023-06-14T15:44:17;25.90;39.80
7016;DHT22;3548;48.402;9.990;2023-06-14T15:46:43;25.90;39.50
7016;DHT22;3548;48.402;9.990;2023-06-14T15:49:10;26.00;39.10
7016;DHT22;3548;48.402;9.990;2023-06-14T15:51:36;25.90;38.70
7016;DHT22;3548;48.402;9.990;2023-06-14T15:54:02;25.80;38.90
7016;DHT22;3548;48.402;9.990;2023-06-14T15:56:27;25.50;39.00
7016;DHT22;3548;48.402;9.990;2023-06-14T15:58:53;25.30;39.50
7016;DHT22;3548;48.402;9.990;2023-06-14T16:01:18;25.10;40.00
7016;DHT22;3548;48.402;9.990;2023-06-14T16:03:44;25.00;40.30
7016;DHT22;3548;48.402;9.990;2023-06-14T16:06:10;24.70;40.40
7016;DHT22;3548;48.402;9.990;2023-06-14T16:08:35;24.40;40.70
7016;DHT22;3548;48.402;9.990;2023-06-14T16:11:01;24.20;41.20